Time;durP1;ratioP1;P1;durP2;ratioP2;P2;SDS_P1;SDS_P2;PMS_P1;PMS_P2;Temp;Humidity;BMP_temperature;BMP_pressure;BME280_temperature;BME280_humidity;BME280_pressure;Samples;Min_cycle;Max_cycle;Signal;HPM_P1;HPM_P2
2022/09/08 00:01:28;;;;;;;14.68;13.02;;;;;;;17.30;100.00;101075.50;4878564;29;20038;-82
2022/09/08 00:03:57;;;;;;;17.38;15.05;;;;;;;17.28;100.00;101069.34;4837089;29;20436;-82
2022/09/08 00:06:26;;;;;;;25.48;22.00;;;;;;;17.28;100.00;101065.81;4822975;29;20049;-82
2022/09/08 00:08:55;;;;;;;26.35;22.63;;;;;;;17.32;100.00;101049.72;4812793;29;20154;-82
2022/09/08 00:11:28;;;;;;;26.30;23.40;;;;;;;17.34;100.00;101053.22;4822320;29;20057;-82
2022/09/08 00:14:05;;;;;;;28.77;25.75;;;;;;;17.39;100.00;101049.56;4843850;29;20271;-84
2022/09/08 00:16:33;;;;;;;35.83;28.42;;;;;;;17.40;100.00;101041.56;4864182;29;20057;-82
2022/09/08 00:19:02;;;;;;;32.35;28.27;;;;;;;17.41;100.00;101043.31;4826145;29;20150;-82
2022/09/08 00:21:31;;;;;;;37.78;33.67;;;;;;;17.44;100.00;101042.38;4840957;29;20041;-83
2022/09/08 00:23:59;;;;;;;36.05;32.10;;;;;;;17.44;100.00;101032.59;4841597;29;20057;-82
2022/09/08 00:26:28;;;;;;;39.30;34.78;;;;;;;17.46;100.00;101041.41;4839970;29;20513;-81
2022/09/08 00:28:57;;;;;;;40.47;36.08;;;;;;;17.46;100.00;101027.22;4836103;29;20041;-82
2022/09/08 00:31:25;;;;;;;42.33;36.63;;;;;;;17.46;100.00;101020.09;4826157;29;20054;-82
2022/09/08 00:33:53;;;;;;;43.45;36.78;;;;;;;17.47;100.00;101027.19;4833704;29;20260;-82
2022/09/08 00:36:22;;;;;;;42.03;33.67;;;;;;;17.47;100.00;101024.53;4839370;29;20057;-82
2022/09/08 00:38:53;;;;;;;42.88;37.40;;;;;;;17.48;100.00;101022.72;4838476;29;20042;-82
2022/09/08 00:41:22;;;;;;;41.28;36.80;;;;;;;17.47;100.00;101021.00;4812492;29;20046;-82
2022/09/08 00:43:58;;;;;;;44.45;38.22;;;;;;;17.45;100.00;101012.16;4855730;29;20470;-82
2022/09/08 00:46:37;;;;;;;39.83;35.50;;;;;;;17.45;100.00;101002.38;4855079;29;20373;-83
2022/09/08 00:49:16;;;;;;;41.75;37.25;;;;;;;17.45;100.00;100997.06;4860654;29;20134;-83
2022/09/08 00:51:49;;;;;;;42.35;35.55;;;;;;;17.43;100.00;100982.91;4853756;29;20049;-82
2022/09/08 00:54:19;;;;;;;47.17;38.33;;;;;;;17.43;100.00;100977.56;4842089;29;20053;-81
2022/09/08 00:56:49;;;;;;;39.80;35.33;;;;;;;17.43;100.00;100977.56;4839683;29;20050;-82
2022/09/08 00:59:24;;;;;;;40.53;35.65;;;;;;;17.44;100.00;100983.75;4836065;29;20387;-82
2022/09/08 01:01:54;;;;;;;39.33;35.10;;;;;;;17.44;100.00;100973.97;4840040;29;20052;-83
2022/09/08 01:04:24;;;;;;;37.50;32.60;;;;;;;17.44;100.00;100981.97;4835937;29;20054;-82
2022/09/08 01:13:38;;;;;;;42.88;36.05;;;;;;;17.42;100.00;100970.47;4832424;29;20058;-83
2022/09/08 01:16:07;;;;;;;45.78;37.25;;;;;;;17.42;100.00;100965.16;4855689;29;20239;-82
2022/09/08 01:18:37;;;;;;;39.20;34.22;;;;;;;17.43;100.00;100966.91;4857677;29;20048;-82
2022/09/08 01:22:01;;;;;;;40.88;33.75;;;;;;;17.40;100.00;100961.63;4843150;29;20288;-82
2022/09/08 01:24:41;;;;;;;38.15;32.30;;;;;;;17.37;100.00;100967.03;4833378;29;20046;-82
2022/09/08 01:27:13;;;;;;;43.08;35.75;;;;;;;17.36;100.00;100967.09;4857971;29;20057;-82
2022/09/08 01:29:43;;;;;;;45.22;35.63;;;;;;;17.33;100.00;100960.03;4843141;29;20056;-82
2022/09/08 01:32:12;;;;;;;49.10;39.40;;;;;;;17.31;100.00;100957.41;4889603;29;20070;-82
2022/09/08 01:34:43;;;;;;;43.08;35.22;;;;;;;17.30;100.00;100957.44;4878658;29;20037;-82
2022/09/08 01:37:12;;;;;;;43.25;36.15;;;;;;;17.27;100.00;100950.38;4893472;29;20056;-82
2022/09/08 01:39:40;;;;;;;46.85;36.30;;;;;;;17.27;100.00;100954.84;4861493;29;20447;-82
2022/09/08 01:42:09;;;;;;;45.15;37.13;;;;;;;17.24;100.00;100947.81;4897307;29;20060;-81
2022/09/08 01:44:37;;;;;;;53.33;43.63;;;;;;;17.23;100.00;100956.69;4847275;29;20048;-83
2022/09/08 01:47:06;;;;;;;49.00;42.53;;;;;;;17.23;100.00;100954.03;4868539;29;20063;-81
2022/09/08 01:49:35;;;;;;;49.85;41.08;;;;;;;17.22;100.00;100951.41;4884278;29;20045;-82
2022/09/08 01:52:03;;;;;;;51.95;41.15;;;;;;;17.21;100.00;100939.88;4883753;29;20045;-82
2022/09/08 01:54:32;;;;;;;49.17;41.78;;;;;;;17.23;100.00;100930.06;4892728;29;20041;-82
2022/09/08 01:57:01;;;;;;;56.75;45.13;;;;;;;17.22;100.00;100916.78;4864690;29;20059;-82
2022/09/08 01:59:29;;;;;;;58.17;46.38;;;;;;;17.22;100.00;100919.44;4883829;29;20052;-81
2022/09/08 02:01:58;;;;;;;54.33;43.58;;;;;;;17.21;100.00;100921.25;4877866;29;20060;-82
2022/09/08 02:04:27;;;;;;;50.03;40.63;;;;;;;17.23;100.00;100923.88;4860489;29;20041;-81
2022/09/08 02:06:55;;;;;;;52.05;41.45;;;;;;;17.23;100.00;100916.75;4886668;29;20041;-79
2022/09/08 02:09:24;;;;;;;48.88;40.08;;;;;;;17.23;100.00;100914.09;4858629;29;20040;-80
2022/09/08 02:11:52;;;;;;;50.90;40.55;;;;;;;17.21;100.00;100920.38;4882232;29;20056;-79
2022/09/08 02:14:24;;;;;;;52.03;39.25;;;;;;;17.21;100.00;100918.59;4867735;29;20056;-80
2022/09/08 02:16:52;;;;;;;50.75;39.30;;;;;;;17.19;100.00;100924.88;4821150;29;20429;-80
2022/09/08 02:19:21;;;;;;;49.97;38.95;;;;;;;17.15;100.00;100924.91;4882750;29;20391;-80
2022/09/08 02:21:50;;;;;;;56.30;44.28;;;;;;;17.13;100.00;100920.56;4889424;29;20683;-80
2022/09/08 02:24:18;;;;;;;52.03;42.92;;;;;;;17.12;100.00;100914.34;4875326;29;20040;-80
2022/09/08 02:26:46;;;;;;;61.80;45.83;;;;;;;17.10;100.00;100908.16;4898864;29;20075;-80
2022/09/08 02:29:15;;;;;;;58.75;45.50;;;;;;;17.10;100.00;100904.63;4859737;29;20044;-79
2022/09/08 02:31:44;;;;;;;57.17;43.75;;;;;;;17.09;100.00;100914.41;4835008;29;20052;-80
2022/09/08 02:34:12;;;;;;;58.30;45.45;;;;;;;17.08;100.00;100925.09;4864872;29;20060;-81
2022/09/08 02:36:41;;;;;;;62.25;47.42;;;;;;;17.07;100.00;100937.53;4880988;29;20047;-81
2022/09/08 02:39:17;;;;;;;59.28;47.30;;;;;;;17.07;100.00;100936.66;4890991;29;20072;-80
2022/09/08 02:41:46;;;;;;;69.95;51.72;;;;;;;17.07;100.00;100928.66;4861383;29;20059;-80
2022/09/08 02:44:15;;;;;;;67.80;52.45;;;;;;;17.08;100.00;100927.75;4887206;29;20052;-80
2022/09/08 02:46:43;;;;;;;64.25;50.22;;;;;;;17.07;100.00;100916.25;4856377;29;20036;-79
2022/09/08 02:49:12;;;;;;;63.95;50.90;;;;;;;17.08;100.00;100911.78;4864159;29;20072;-81
2022/09/08 02:51:41;;;;;;;65.47;51.35;;;;;;;17.08;100.00;100917.13;4895409;29;20064;-80
2022/09/08 02:54:09;;;;;;;65.97;51.95;;;;;;;17.09;100.00;100910.91;4873311;29;20053;-79
2022/09/08 02:56:38;;;;;;;69.10;51.72;;;;;;;17.11;100.00;100906.41;4872997;29;20491;-80
2022/09/08 02:59:06;;;;;;;65.90;51.55;;;;;;;17.13;100.00;100912.56;4893156;29;20063;-80
2022/09/08 03:01:34;;;;;;;71.95;57.90;;;;;;;17.15;100.00;100908.09;4883706;29;20059;-81
2022/09/08 03:04:05;;;;;;;76.82;59.53;;;;;;;17.16;100.00;100904.50;4838309;29;20400;-80
2022/09/08 03:06:35;;;;;;;76.43;54.25;;;;;;;17.19;100.00;100899.09;4872205;29;20048;-81
2022/09/08 03:09:05;;;;;;;71.43;55.20;;;;;;;17.21;100.00;100891.94;4879772;29;20278;-79
2022/09/08 03:11:34;;;;;;;73.00;54.78;;;;;;;17.24;100.00;100891.91;4871797;29;20043;-81
2022/09/08 03:14:03;;;;;;;67.60;52.33;;;;;;;17.27;100.00;100883.81;4868583;29;20053;-80
2022/09/08 03:16:32;;;;;;;68.97;54.15;;;;;;;17.30;100.00;100880.22;4880947;29;20056;-81
2022/09/08 03:19:03;;;;;;;67.90;51.55;;;;;;;17.32;100.00;100892.56;4834783;29;21131;-80
2022/09/08 03:21:31;;;;;;;60.58;48.60;;;;;;;17.33;100.00;100886.34;4888915;29;20051;-79
2022/09/08 03:24:02;;;;;;;64.93;51.40;;;;;;;17.36;100.00;100885.38;4872439;29;20067;-79
2022/09/08 03:26:30;;;;;;;64.75;49.13;;;;;;;17.38;100.00;100877.38;4889132;29;20528;-80
2022/09/08 03:28:59;;;;;;;64.55;51.08;;;;;;;17.39;100.00;100880.00;4863628;29;20044;-80
2022/09/08 03:31:27;;;;;;;68.30;51.72;;;;;;;17.40;100.00;100872.88;4857260;29;20044;-80
2022/09/08 03:33:55;;;;;;;57.50;47.33;;;;;;;17.42;100.00;100871.03;4824172;29;21835;-79
2022/09/08 03:36:24;;;;;;;62.70;48.10;;;;;;;17.43;100.00;100865.69;4865280;29;20057;-79
2022/09/08 03:38:54;;;;;;;55.35;44.13;;;;;;;17.45;100.00;100857.66;4862545;29;20430;-80
2022/09/08 03:41:22;;;;;;;57.75;43.35;;;;;;;17.45;100.00;100857.66;4865307;29;20041;-79
2022/09/08 03:43:51;;;;;;;51.45;43.33;;;;;;;17.46;100.00;100852.25;4849714;29;20056;-80
2022/09/08 03:46:19;;;;;;;58.38;46.67;;;;;;;17.47;100.00;100850.50;4886774;29;20369;-79
2022/09/08 03:48:48;;;;;;;56.05;45.78;;;;;;;17.46;100.00;100848.75;4857158;29;20063;-79
2022/09/08 03:51:22;;;;;;;57.35;45.80;;;;;;;17.47;100.00;100853.16;4872263;29;20508;-80
2022/09/08 03:53:53;;;;;;;53.28;43.63;;;;;;;17.48;100.00;100852.22;4875873;29;20049;-80
2022/09/08 03:56:21;;;;;;;51.85;42.53;;;;;;;17.49;100.00;100848.69;4876018;29;20410;-80
2022/09/08 03:58:50;;;;;;;54.05;43.30;;;;;;;17.49;100.00;100851.34;4869484;29;20048;-80
2022/09/08 04:01:18;;;;;;;52.63;43.25;;;;;;;17.50;100.00;100853.06;4869274;29;20329;-79
2022/09/08 04:03:47;;;;;;;52.33;41.42;;;;;;;17.50;100.00;100853.97;4854052;29;20056;-80
2022/09/08 04:06:16;;;;;;;51.28;41.80;;;;;;;17.50;100.00;100853.06;4842930;29;20767;-80
2022/09/08 04:08:45;;;;;;;54.38;46.30;;;;;;;17.51;100.00;100847.72;4897042;29;20048;-79
2022/09/08 04:11:13;;;;;;;56.03;47.63;;;;;;;17.52;100.00;100843.25;4880728;29;20287;-81
2022/09/08 04:13:42;;;;;;;58.38;46.80;;;;;;;17.54;100.00;100846.75;4882400;29;20059;-79
2022/09/08 04:16:10;;;;;;;45.97;38.80;;;;;;;17.57;100.00;100843.16;4865884;29;20041;-82
2022/09/08 04:18:39;;;;;;;47.60;41.50;;;;;;;17.57;100.00;100846.69;4888090;29;20044;-81
2022/09/08 04:21:07;;;;;;;52.90;43.45;;;;;;;17.57;100.00;100845.81;4848493;29;20044;-80
2022/09/08 04:23:35;;;;;;;59.05;47.38;;;;;;;17.58;100.00;100842.22;4884560;29;20048;-80
2022/09/08 04:26:09;;;;;;;57.78;45.88;;;;;;;17.58;100.00;100839.53;4866622;29;20049;-80
2022/09/08 04:28:39;;;;;;;57.25;49.05;;;;;;;17.61;100.00;100831.50;4863340;29;20056;-81
2022/09/08 04:31:14;;;;;;;53.97;43.30;;;;;;;17.64;100.00;100824.28;4852893;29;20040;-80
2022/09/08 04:33:43;;;;;;;53.85;44.03;;;;;;;17.64;100.00;100823.44;4871319;29;20382;-80
2022/09/08 04:36:15;;;;;;;52.80;41.33;;;;;;;17.65;100.00;100818.03;4849537;29;20126;-80
2022/09/08 04:38:55;;;;;;;58.25;46.15;;;;;;;17.65;100.00;100809.16;4877021;29;20037;-80
2022/09/08 04:41:25;;;;;;;53.73;45.20;;;;;;;17.65;100.00;100806.50;4858843;29;20267;-80
2022/09/08 04:43:55;;;;;;;51.95;41.33;;;;;;;17.65;100.00;100811.84;4882181;29;20818;-79
2022/09/08 04:46:24;;;;;;;57.58;44.63;;;;;;;17.65;100.00;100798.50;4870803;29;20060;-81
2022/09/08 04:48:52;;;;;;;60.80;47.97;;;;;;;17.65;100.00;100806.50;4841607;29;20036;-80
2022/09/08 04:51:22;;;;;;;53.85;44.88;;;;;;;17.66;100.00;100808.28;4848611;29;20157;-79
2022/09/08 04:53:55;;;;;;;60.35;49.47;;;;;;;17.66;100.00;100797.63;4869272;29;20057;-79
2022/09/08 04:56:24;;;;;;;53.78;45.10;;;;;;;17.67;100.00;100802.00;4869780;29;20176;-80
2022/09/08 04:58:54;;;;;;;60.83;46.17;;;;;;;17.66;100.00;100798.47;4865701;29;20049;-80
2022/09/08 05:01:26;;;;;;;56.70;43.85;;;;;;;17.67;100.00;100802.00;4878489;29;20045;-82
2022/09/08 05:03:58;;;;;;;56.75;45.67;;;;;;;17.66;100.00;100792.28;4867691;29;20043;-82
2022/09/08 05:06:30;;;;;;;52.88;44.20;;;;;;;17.67;100.00;100788.69;4840422;29;20078;-80
2022/09/08 05:09:00;;;;;;;58.53;48.58;;;;;;;17.67;100.00;100791.34;4878039;29;20286;-79
2022/09/08 05:11:31;;;;;;;58.55;47.35;;;;;;;17.69;100.00;100784.19;4865559;29;20052;-80
2022/09/08 05:14:00;;;;;;;55.88;45.97;;;;;;;17.70;100.00;100791.28;4893587;29;20055;-79
2022/09/08 05:16:29;;;;;;;55.13;46.83;;;;;;;17.70;100.00;100775.28;4889612;29;20048;-80
2022/09/08 05:19:00;;;;;;;59.63;48.58;;;;;;;17.71;100.00;100777.03;4889113;29;20045;-79
2022/09/08 05:21:30;;;;;;;61.65;50.50;;;;;;;17.72;100.00;100776.13;4863139;29;20048;-79
2022/09/08 05:24:00;;;;;;;54.50;46.38;;;;;;;17.73;100.00;100772.50;4827725;29;20048;-80
2022/09/08 05:26:29;;;;;;;58.23;47.37;;;;;;;17.74;100.00;100771.63;4877590;29;20049;-80
2022/09/08 05:28:58;;;;;;;60.42;49.20;;;;;;;17.73;100.00;100768.09;4867766;29;20515;-79
2022/09/08 05:31:28;;;;;;;61.75;49.70;;;;;;;17.73;100.00;100776.06;4873768;29;20069;-80
2022/09/08 05:33:58;;;;;;;;;;;;;;;17.73;100.00;100773.41;4853662;29;20257;-80
2022/09/08 05:36:31;;;;;;;57.67;46.83;;;;;;;17.72;100.00;100765.47;4828509;29;19931;-79
2022/09/08 05:39:01;;;;;;;61.92;47.55;;;;;;;17.73;100.00;100764.53;4843287;29;20046;-79
2022/09/08 05:41:30;;;;;;;58.70;47.60;;;;;;;17.74;100.00;100758.28;4852009;29;20057;-82
2022/09/08 05:44:00;;;;;;;60.10;49.08;;;;;;;17.75;100.00;100749.41;4854411;29;20053;-79
2022/09/08 05:46:28;;;;;;;57.90;46.47;;;;;;;17.77;100.00;100734.22;4852754;29;20064;-79
2022/09/08 05:49:01;;;;;;;58.03;47.92;;;;;;;17.80;100.00;100730.59;4853150;29;20053;-79
2022/09/08 05:51:32;;;;;;;52.92;46.08;;;;;;;17.81;100.00;100727.03;4839866;29;20058;-80
2022/09/08 05:54:01;;;;;;;49.45;42.88;;;;;;;17.80;100.00;100731.47;4826918;29;20057;-81
2022/09/08 05:56:30;;;;;;;56.60;46.15;;;;;;;17.82;100.00;100726.09;4815764;29;20052;-80
2022/09/08 05:58:59;;;;;;;56.00;46.42;;;;;;;17.82;100.00;100721.63;4844546;29;20033;-79
2022/09/08 06:01:30;;;;;;;53.17;44.00;;;;;;;17.79;100.00;100719.06;4838981;29;20041;-79
2022/09/08 06:04:01;;;;;;;52.38;43.97;;;;;;;17.77;100.00;100723.56;4850003;29;20053;-79
2022/09/08 06:06:31;;;;;;;56.45;46.97;;;;;;;17.74;100.00;100720.97;4846154;29;20057;-79
2022/09/08 06:09:00;;;;;;;;;;;;;;;17.73;100.00;100724.53;4840215;29;20033;-78
2022/09/08 06:11:32;;;;;;;50.03;42.15;;;;;;;17.70;100.00;100716.66;4848211;29;19931;-78
2022/09/08 06:14:01;;;;;;;54.10;44.47;;;;;;;17.71;100.00;100707.72;4834536;29;20068;-78
2022/09/08 06:16:30;;;;;;;54.45;45.22;;;;;;;17.72;100.00;100710.34;4821618;29;20411;-79
2022/09/08 06:19:00;;;;;;;53.90;43.55;;;;;;;17.76;100.00;100707.63;4847778;29;20046;-79
2022/09/08 06:21:31;;;;;;;52.92;43.05;;;;;;;17.78;100.00;100714.63;4829471;29;20048;-80
2022/09/08 06:24:02;;;;;;;59.22;42.70;;;;;;;17.80;100.00;100715.47;4804913;29;20048;-79
2022/09/08 06:26:43;;;;;;;55.95;44.92;;;;;;;17.83;100.00;100719.84;4844962;29;20072;-79
2022/09/08 06:29:21;;;;;;;47.17;39.85;;;;;;;17.85;100.00;100721.56;4844926;29;20049;-79
2022/09/08 06:32:03;;;;;;;52.75;43.78;;;;;;;17.87;100.00;100724.22;4863995;29;20264;-78
2022/09/08 06:34:43;;;;;;;51.15;41.90;;;;;;;17.86;100.00;100714.44;4846722;29;20057;-82
2022/09/08 06:37:33;;;;;;;45.70;39.63;;;;;;;17.85;100.00;100713.59;4859471;29;20045;-78
2022/09/08 06:40:09;;;;;;;45.97;40.37;;;;;;;17.82;100.00;100713.63;4854906;29;20050;-79
2022/09/08 06:42:51;;;;;;;49.72;42.90;;;;;;;17.79;100.00;100712.84;4839424;29;20485;-79
2022/09/08 06:45:49;;;;;;;51.88;40.35;;;;;;;17.76;100.00;100708.47;4851516;29;20053;-80
2022/09/08 06:48:29;;;;;;;46.63;38.67;;;;;;;17.73;100.00;100701.47;4854413;29;20068;-79
2022/09/08 06:51:18;;;;;;;47.47;40.70;;;;;;;17.71;100.00;100707.72;4854095;29;20041;-79
2022/09/08 06:54:09;;;;;;;46.75;41.47;;;;;;;17.69;100.00;100706.91;4816919;29;20053;-79
2022/09/08 06:56:48;;;;;;;46.17;40.50;;;;;;;17.68;100.00;100700.72;4845844;29;20376;-79
2022/09/08 06:59:54;;;;;;;49.47;43.80;;;;;;;17.68;100.00;100706.03;4836059;29;20503;-79
2022/09/08 07:02:27;;;;;;;53.08;40.55;;;;;;;17.69;100.00;100712.22;4854042;29;20057;-79
2022/09/08 07:04:59;;;;;;;51.38;41.72;;;;;;;17.70;100.00;100708.66;4844350;29;20628;-80
2022/09/08 07:07:46;;;;;;;51.83;42.38;;;;;;;17.72;100.00;100712.16;4838263;29;20048;-79
2022/09/08 07:10:24;;;;;;;51.70;41.55;;;;;;;17.72;100.00;100707.69;4800327;29;20272;-80
2022/09/08 07:13:14;;;;;;;;;;;;;;;17.72;100.00;100709.50;4858797;29;20064;-79
2022/09/08 07:15:46;;;;;;;51.45;42.72;;;;;;;17.72;100.00;100706.81;4837757;29;20233;-77
2022/09/08 07:18:30;;;;;;;54.35;43.63;;;;;;;17.74;100.00;100710.31;4839426;29;20053;-80
2022/09/08 07:21:20;;;;;;;48.72;40.55;;;;;;;17.77;100.00;100709.34;4839925;29;20045;-78
2022/09/08 07:23:50;;;;;;;54.72;44.00;;;;;;;17.78;100.00;100767.94;4858175;29;20157;-78
2022/09/08 07:26:28;;;;;;;49.38;41.60;;;;;;;17.77;100.00;100787.53;4810502;29;20398;-78
2022/09/08 07:29:04;;;;;;;58.08;45.75;;;;;;;17.69;100.00;100774.41;4847481;29;20042;-78
2022/09/08 07:31:38;;;;;;;55.90;48.60;;;;;;;17.61;100.00;100800.38;4825002;29;20800;-78
2022/09/08 07:34:16;;;;;;;54.88;48.03;;;;;;;17.56;100.00;100791.66;4848537;29;20049;-79
2022/09/08 07:37:24;;;;;;;57.60;49.50;;;;;;;17.51;100.00;100788.22;4824756;29;20174;-79
2022/09/08 07:40:02;;;;;;;53.47;46.22;;;;;;;17.48;100.00;100786.50;4815323;29;20053;-78
2022/09/08 07:42:31;;;;;;;54.38;48.28;;;;;;;17.43;100.00;100777.78;4842270;29;20606;-79
2022/09/08 07:45:06;;;;;;;57.97;46.58;;;;;;;17.42;100.00;100778.69;4832150;29;20037;-78
2022/09/08 07:47:54;;;;;;;56.25;44.60;;;;;;;17.40;100.00;100782.31;4840668;29;20081;-79
2022/09/08 07:50:54;;;;;;;61.22;49.75;;;;;;;17.39;100.00;100769.91;4853712;29;20061;-81
2022/09/08 07:53:46;;;;;;;56.22;46.22;;;;;;;17.38;100.00;100771.69;4845163;29;20045;-80
2022/09/08 07:56:21;;;;;;;53.75;46.10;;;;;;;17.37;100.00;100769.06;4797013;29;20435;-79
2022/09/08 07:59:14;;;;;;;53.38;46.22;;;;;;;17.39;100.00;100772.56;4855252;29;20050;-79
2022/09/08 08:02:13;;;;;;;55.70;46.15;;;;;;;17.40;100.00;100772.53;4837435;29;20053;-79
2022/09/08 08:04:45;;;;;;;54.60;47.03;;;;;;;17.41;100.00;100765.41;4813135;29;20061;-78
2022/09/08 08:07:21;;;;;;;58.60;48.72;;;;;;;17.43;100.00;100772.44;4836182;29;20045;-79
2022/09/08 08:10:09;;;;;;;52.40;45.65;;;;;;;17.47;100.00;100774.13;4843069;29;20050;-78
2022/09/08 08:12:44;;;;;;;53.92;44.92;;;;;;;17.50;100.00;100771.38;4807166;29;20668;-79
2022/09/08 08:15:12;;;;;;;57.08;47.80;;;;;;;17.53;100.00;100776.59;4858135;29;20050;-79
2022/09/08 08:18:12;;;;;;;51.70;46.08;;;;;;;17.57;100.00;100771.22;4823680;29;20058;-79
2022/09/08 08:20:55;;;;;;;57.05;50.78;;;;;;;17.59;100.00;100774.69;4856564;29;20680;-79
2022/09/08 08:23:51;;;;;;;54.47;44.85;;;;;;;17.64;100.00;100780.78;4844291;29;20057;-80
2022/09/08 08:26:36;;;;;;;53.20;46.92;;;;;;;17.67;100.00;100778.03;4873442;29;20071;-81
2022/09/08 08:29:34;;;;;;;51.60;43.58;;;;;;;17.69;100.00;100781.53;4826363;29;20049;-79
2022/09/08 08:32:12;;;;;;;55.28;46.83;;;;;;;17.70;100.00;100780.63;4859708;29;20057;-78
2022/09/08 08:35:12;;;;;;;45.92;41.03;;;;;;;17.71;100.00;100779.69;4877201;29;20044;-79
2022/09/08 08:37:45;;;;;;;45.47;38.85;;;;;;;17.73;100.00;100783.19;4859507;29;20052;-79
2022/09/08 08:40:26;;;;;;;49.25;43.58;;;;;;;17.76;100.00;100780.44;4855997;29;20053;-79
2022/09/08 08:43:29;;;;;;;46.15;40.90;;;;;;;17.79;100.00;100782.13;4843660;29;20072;-80
2022/09/08 08:46:19;;;;;;;44.22;38.03;;;;;;;17.81;100.00;100775.88;4873621;29;20060;-80
2022/09/08 08:49:48;;;;;;;51.13;43.80;;;;;;;17.85;100.00;100782.03;4885469;29;22771;-78
2022/09/08 08:52:40;;;;;;;43.50;38.80;;;;;;;17.90;100.00;100766.75;4833535;29;20057;-79
2022/09/08 08:55:41;;;;;;;45.92;40.92;;;;;;;17.97;100.00;100762.13;4878364;29;20053;-78
2022/09/08 08:58:37;;;;;;;43.20;37.08;;;;;;;18.02;100.00;100763.75;4842404;29;20049;-79
2022/09/08 09:01:25;;;;;;;41.08;36.67;;;;;;;18.06;100.00;100761.88;4883012;29;20086;-80
2022/09/08 09:04:00;;;;;;;39.00;34.65;;;;;;;18.12;100.00;100751.00;4894129;29;20040;-79
2022/09/08 09:06:59;;;;;;;44.22;39.03;;;;;;;18.16;100.00;100760.66;4864811;29;20044;-81
2022/09/08 09:09:40;;;;;;;35.72;31.90;;;;;;;18.22;100.00;100762.28;4881796;29;20052;-81
2022/09/08 09:12:39;;;;;;;36.42;31.67;;;;;;;18.25;100.00;100765.72;4882571;29;20048;-81
2022/09/08 09:15:47;;;;;;;35.95;32.05;;;;;;;18.30;100.00;100763.81;4861359;29;20045;-80
2022/09/08 09:19:13;;;;;;;37.97;33.97;;;;;;;18.34;100.00;100761.06;4831348;29;20260;-81
2022/09/08 09:21:47;;;;;;;35.20;31.55;;;;;;;18.37;100.00;100761.81;4870910;29;20041;-80
2022/09/08 09:24:38;;;;;;;36.40;32.53;;;;;;;18.39;100.00;100767.09;4878942;29;20055;-80
2022/09/08 09:27:38;;;;;;;34.42;30.30;;;;;;;18.39;100.00;100757.31;4883772;29;20057;-80
2022/09/08 09:30:54;;;;;;;34.42;30.73;;;;;;;18.43;100.00;100758.06;4835790;29;20406;-80
2022/09/08 09:33:54;;;;;;;34.60;30.80;;;;;;;18.42;100.00;100754.53;4843360;29;20044;-81
2022/09/08 09:36:49;;;;;;;31.02;26.80;;;;;;;18.38;100.00;100758.22;4853532;29;20045;-81
2022/09/08 09:39:31;;;;;;;33.00;29.50;;;;;;;18.37;100.00;100763.59;4879668;29;20056;-81
2022/09/08 09:42:21;;;;;;;34.35;30.75;;;;;;;18.37;100.00;100766.28;4884856;29;20060;-81
2022/09/08 09:45:19;;;;;;;36.75;32.85;;;;;;;18.34;100.00;100774.41;4861175;29;20056;-82
2022/09/08 09:48:23;;;;;;;34.35;29.27;;;;;;;18.33;100.00;100772.63;4873780;29;20267;-82
2022/09/08 09:51:17;;;;;;;33.40;29.90;;;;;;;18.28;100.00;100772.78;4842752;29;20057;-81
2022/09/08 09:54:00;;;;;;;34.53;30.65;;;;;;;18.26;100.00;100771.94;4874326;29;20541;-82
2022/09/08 09:56:59;;;;;;;36.42;30.63;;;;;;;18.25;100.00;100757.72;4852789;29;20033;-80
2022/09/08 10:00:17;;;;;;;33.10;29.60;;;;;;;18.23;100.00;100762.22;4847066;29;20457;-80
2022/09/08 10:03:07;;;;;;;33.17;29.48;;;;;;;18.20;100.00;100756.97;4885074;29;20060;-81
2022/09/08 10:06:09;;;;;;;33.45;29.02;;;;;;;18.22;100.00;100779.19;4847449;29;20045;-81
2022/09/08 10:08:44;;;;;;;32.75;29.23;;;;;;;18.18;100.00;100789.97;4870211;29;20045;-81
2022/09/08 10:11:28;;;;;;;35.63;31.92;;;;;;;18.17;100.00;100791.75;4879230;29;20060;-82
2022/09/08 10:14:11;;;;;;;31.77;28.23;;;;;;;18.11;100.00;100811.47;4889551;29;20048;-81
2022/09/08 10:17:00;;;;;;;32.75;26.45;;;;;;;18.00;100.00;100808.25;4850062;29;20446;-81
2022/09/08 10:19:31;;;;;;;32.70;26.40;;;;;;;17.93;100.00;100810.19;4857325;29;20040;-80
2022/09/08 10:22:12;;;;;;;29.65;26.30;;;;;;;17.90;100.00;100786.31;4894048;29;20131;-81
2022/09/08 10:24:59;;;;;;;;;;;;;;;17.91;100.00;100776.50;4875053;29;20071;-81
2022/09/08 10:27:42;;;;;;;37.10;29.33;;;;;;;17.90;100.00;100764.97;4884556;29;19931;-80
2022/09/08 10:30:35;;;;;;;36.22;30.17;;;;;;;17.89;100.00;100773.00;4889910;29;20121;-81
2022/09/08 10:33:13;;;;;;;31.38;27.15;;;;;;;17.89;100.00;100767.69;4830641;29;20038;-80
2022/09/08 10:35:47;;;;;;;32.47;27.40;;;;;;;17.91;100.00;100763.19;4840962;29;20259;-79
2022/09/08 10:38:34;;;;;;;33.70;28.60;;;;;;;17.93;100.00;100764.88;4853631;29;20057;-79
2022/09/08 10:41:21;;;;;;;34.78;29.48;;;;;;;17.96;100.00;100768.38;4837708;29;20037;-82
2022/09/08 10:43:52;;;;;;;37.20;29.85;;;;;;;17.92;100.00;100773.81;4843292;29;20060;-81
2022/09/08 10:46:40;;;;;;;28.00;24.63;;;;;;;17.93;100.00;100778.19;4851892;29;20056;-80
2022/09/08 10:49:41;;;;;;;32.15;26.38;;;;;;;17.96;100.00;100785.25;4831527;29;20179;-80
2022/09/08 10:52:32;;;;;;;30.13;25.77;;;;;;;17.93;100.00;100791.53;4847793;29;20403;-80
2022/09/08 10:55:27;;;;;;;29.70;25.67;;;;;;;17.93;100.00;100783.53;4882720;29;20517;-80
2022/09/08 10:58:17;;;;;;;27.08;23.15;;;;;;;17.95;100.00;100793.28;4854122;29;20056;-79
2022/09/08 11:00:58;;;;;;;;;;;;;;;17.96;100.00;100800.34;4855695;29;20046;-79
2022/09/08 11:03:58;;;;;;;24.77;20.52;;;;;;;17.93;100.00;100799.53;4827931;29;19932;-79
2022/09/08 11:06:35;;;;;;;26.03;21.30;;;;;;;17.94;100.00;100803.09;4841693;29;20041;-80
2022/09/08 11:09:16;;;;;;;22.75;20.35;;;;;;;17.96;100.00;100805.69;4844576;29;20324;-79
2022/09/08 11:12:12;;;;;;;;;;;;;;;17.95;100.00;100810.16;4849131;29;20062;-79
2022/09/08 11:15:07;;;;;;;24.80;21.35;;;;;;;17.95;100.00;100811.97;4850455;29;19923;-81
2022/09/08 11:17:47;;;;;;;23.88;21.23;;;;;;;17.95;100.00;100815.50;4830381;29;20407;-80
2022/09/08 11:20:40;;;;;;;24.90;21.48;;;;;;;17.96;100.00;100814.59;4823399;29;20049;-80
2022/09/08 11:23:27;;;;;;;23.33;20.83;;;;;;;17.97;100.00;100810.13;4874077;29;20053;-80
2022/09/08 11:26:18;;;;;;;22.13;19.83;;;;;;;17.96;100.00;100811.91;4850649;29;20034;-80
2022/09/08 11:29:09;;;;;;;25.95;21.95;;;;;;;17.99;100.00;100821.59;4845190;29;20153;-79
2022/09/08 11:31:43;;;;;;;27.08;20.83;;;;;;;17.99;100.00;100830.47;4857623;29;20524;-80
2022/09/08 11:34:28;;;;;;;28.80;22.13;;;;;;;17.99;100.00;100824.28;4840700;29;20068;-80
2022/09/08 11:37:15;;;;;;;22.88;19.17;;;;;;;18.00;100.00;100828.72;4874053;29;20287;-80
2022/09/08 11:39:49;;;;;;;21.08;18.83;;;;;;;17.98;100.00;100831.41;4869666;29;20040;-79
2022/09/08 11:42:55;;;;;;;17.05;14.93;;;;;;;17.98;100.00;100828.75;4881870;29;20375;-80
2022/09/08 11:45:52;;;;;;;11.32;8.95;;;;;;;17.88;100.00;100824.56;4861993;29;20044;-79
2022/09/08 11:48:59;;;;;;;10.80;9.70;;;;;;;17.85;100.00;100822.00;4882108;29;20475;-80
2022/09/08 11:52:05;;;;;;;10.32;9.27;;;;;;;17.85;100.00;100822.00;4850648;29;20071;-80
2022/09/08 11:55:35;;;;;;;15.07;8.30;;;;;;;17.82;100.00;100820.25;4871308;29;20697;-80
2022/09/08 11:58:46;;;;;;;9.20;7.63;;;;;;;17.78;100.00;100823.91;4884691;29;20164;-80
2022/09/08 12:01:57;;;;;;;7.40;6.75;;;;;;;17.76;100.00;100820.41;4865697;29;20800;-81